sensor_id;sensor_type;location;lat;lon;timestamp;pressure;altitude;pressure_sealevel;temperature;humidity
28927;BME280;16038;47.692;9.400;2022-11-15T00:01:42;96515.53;;;2.87;100.00
28927;BME280;16038;47.692;9.400;2022-11-15T00:04:07;96512.50;;;2.89;100.00
28927;BME280;16038;47.692;9.400;2022-11-15T00:06:33;96512.19;;;2.90;100.00
28927;BME280;16038;47.692;9.400;2022-11-15T00:08:59;96503.25;;;2.90;100.00
28927;BME280;16038;47.692;9.400;2022-11-15T00:11:25;96497.22;;;2.93;100.00
28927;BME280;16038;47.692;9.400;2022-11-15T00:13:51;96504.69;;;2.87;100.00
28927;BME280;16038;47.692;9.400;2022-11-15T00:16:16;96496.44;;;2.92;100.00
28927;BME280;16038;47.692;9.400;2022-11-15T00:18:41;96496.91;;;2.94;100.00
28927;BME280;16038;47.692;9.400;2022-11-15T00:21:11;96494.19;;;2.85;100.00
28927;BME280;16038;47.692;9.400;2022-11-15T00:23:37;96492.13;;;2.74;100.00
28927;BME280;16038;47.692;9.400;2022-11-15T00:26:03;96495.19;;;2.72;100.00
28927;BME280;16038;47.692;9.400;2022-11-15T00:28:29;96504.41;;;2.71;100.00
28927;BME280;16038;47.692;9.400;2022-11-15T00:31:00;96495.19;;;2.72;100.00
28927;BME280;16038;47.692;9.400;2022-11-15T00:33:26;96491.34;;;2.73;100.00
28927;BME280;16038;47.692;9.400;2022-11-15T00:35:52;96483.09;;;2.61;100.00
28927;BME280;16038;47.692;9.400;2022-11-15T00:38:17;96489.94;;;2.49;100.00
28927;BME280;16038;47.692;9.400;2022-11-15T00:40:42;96484.69;;;2.53;100.00
28927;BME280;16038;47.692;9.400;2022-11-15T00:43:08;96492.19;;;2.65;100.00
28927;BME280;16038;47.692;9.400;2022-11-15T00:45:33;96490.88;;;2.71;100.00
28927;BME280;16038;47.692;9.400;2022-11-15T00:47:59;96500.25;;;2.74;100.00
28927;BME280;16038;47.692;9.400;2022-11-15T00:50:24;96490.41;;;2.60;100.00
28927;BME280;16038;47.692;9.400;2022-11-15T00:52:50;96495.66;;;2.57;100.00
28927;BME280;16038;47.692;9.400;2022-11-15T00:55:16;96498.84;;;2.50;100.00
28927;BME280;16038;47.692;9.400;2022-11-15T00:57:42;96503.97;;;2.34;100.00
28927;BME280;16038;47.692;9.400;2022-11-15T01:00:08;96486.78;;;2.30;100.00
28927;BME280;16038;47.692;9.400;2022-11-15T01:02:34;96495.22;;;2.20;100.00
28927;BME280;16038;47.692;9.400;2022-11-15T01:05:00;96489.13;;;1.88;100.00
28927;BME280;16038;47.692;9.400;2022-11-15T01:07:25;96490.34;;;1.64;100.00
28927;BME280;16038;47.692;9.400;2022-11-15T01:09:51;96486.50;;;1.48;100.00
28927;BME280;16038;47.692;9.400;2022-11-15T01:12:16;96490.75;;;1.40;100.00
28927;BME280;16038;47.692;9.400;2022-11-15T01:14:41;96498.38;;;1.47;100.00
28927;BME280;16038;47.692;9.400;2022-11-15T01:17:07;96492.75;;;1.66;100.00
28927;BME280;16038;47.692;9.400;2022-11-15T01:19:32;96488.78;;;1.81;100.00
28927;BME280;16038;47.692;9.400;2022-11-15T01:21:57;96490.88;;;1.84;100.00
28927;BME280;16038;47.692;9.400;2022-11-15T01:24:23;96485.47;;;1.92;100.00
28927;BME280;16038;47.692;9.400;2022-11-15T01:26:48;96477.22;;;1.98;100.00
28927;BME280;16038;47.692;9.400;2022-11-15T01:29:13;96465.63;;;1.97;100.00
28927;BME280;16038;47.692;9.400;2022-11-15T01:31:39;96467.78;;;1.60;100.00
28927;BME280;16038;47.692;9.400;2022-11-15T01:34:04;96464.56;;;1.41;100.00
28927;BME280;16038;47.692;9.400;2022-11-15T01:36:30;96464.06;;;1.30;100.00
28927;BME280;16038;47.692;9.400;2022-11-15T01:38:57;96455.31;;;1.33;100.00
28927;BME280;16038;47.692;9.400;2022-11-15T01:41:26;96457.88;;;1.38;100.00
28927;BME280;16038;47.692;9.400;2022-11-15T01:43:54;96463.34;;;1.64;100.00
28927;BME280;16038;47.692;9.400;2022-11-15T01:48:56;96459.88;;;1.81;100.00
28927;BME280;16038;47.692;9.400;2022-11-15T01:51:25;96449.56;;;1.83;100.00
28927;BME280;16038;47.692;9.400;2022-11-15T01:53:57;96439.41;;;1.80;100.00
28927;BME280;16038;47.692;9.400;2022-11-15T01:56:27;96442.91;;;1.89;100.00
28927;BME280;16038;47.692;9.400;2022-11-15T01:58:57;96444.63;;;1.94;100.00
28927;BME280;16038;47.692;9.400;2022-11-15T02:01:25;96448.78;;;1.83;100.00
28927;BME280;16038;47.692;9.400;2022-11-15T02:03:56;96448.53;;;1.53;100.00
28927;BME280;16038;47.692;9.400;2022-11-15T02:06:23;96452.69;;;1.50;100.00
28927;BME280;16038;47.692;9.400;2022-11-15T02:08:49;96447.00;;;1.61;100.00
28927;BME280;16038;47.692;9.400;2022-11-15T02:11:15;96442.50;;;1.47;100.00
28927;BME280;16038;47.692;9.400;2022-11-15T02:13:41;96432.66;;;1.43;100.00
28927;BME280;16038;47.692;9.400;2022-11-15T02:18:43;96423.41;;;1.35;100.00
28927;BME280;16038;47.692;9.400;2022-11-15T02:27:03;96416.56;;;1.20;100.00
28927;BME280;16038;47.692;9.400;2022-11-15T02:32:44;96420.28;;;1.50;100.00
28927;BME280;16038;47.692;9.400;2022-11-15T02:35:38;96401.25;;;1.56;100.00
28927;BME280;16038;47.692;9.400;2022-11-15T02:38:12;96397.09;;;1.49;100.00
28927;BME280;16038;47.692;9.400;2022-11-15T02:40:53;96400.28;;;1.51;100.00
28927;BME280;16038;47.692;9.400;2022-11-15T02:43:42;96398.09;;;1.62;100.00
28927;BME280;16038;47.692;9.400;2022-11-15T02:49:13;96408.88;;;1.53;100.00
28927;BME280;16038;47.692;9.400;2022-11-15T02:51:40;96414.25;;;1.53;100.00
28927;BME280;16038;47.692;9.400;2022-11-15T02:54:07;96419.53;;;1.59;100.00
28927;BME280;16038;47.692;9.400;2022-11-15T02:56:35;96419.00;;;1.57;100.00
28927;BME280;16038;47.692;9.400;2022-11-15T03:01:55;96407.59;;;1.60;100.00
28927;BME280;16038;47.692;9.400;2022-11-15T03:07:40;96400.25;;;0.85;100.00
28927;BME280;16038;47.692;9.400;2022-11-15T03:12:43;96394.16;;;1.11;100.00
28927;BME280;16038;47.692;9.400;2022-11-15T03:15:14;96395.63;;;1.26;100.00
28927;BME280;16038;47.692;9.400;2022-11-15T03:17:49;96402.78;;;1.30;100.00
28927;BME280;16038;47.692;9.400;2022-11-15T03:20:17;96389.94;;;1.45;100.00
28927;BME280;16038;47.692;9.400;2022-11-15T03:22:45;96390.63;;;1.59;100.00
28927;BME280;16038;47.692;9.400;2022-11-15T03:25:17;96386.94;;;1.64;100.00
28927;BME280;16038;47.692;9.400;2022-11-15T03:27:49;96386.66;;;1.74;100.00
28927;BME280;16038;47.692;9.400;2022-11-15T03:30:17;96390.97;;;1.84;100.00
28927;BME280;16038;47.692;9.400;2022-11-15T03:32:47;96390.28;;;1.78;100.00
28927;BME280;16038;47.692;9.400;2022-11-15T03:35:18;96382.84;;;1.75;100.00
28927;BME280;16038;47.692;9.400;2022-11-15T03:38:17;96380.91;;;1.58;100.00
28927;BME280;16038;47.692;9.400;2022-11-15T03:41:04;96377.09;;;1.42;100.00
28927;BME280;16038;47.692;9.400;2022-11-15T03:43:36;96371.38;;;1.43;100.00
28927;BME280;16038;47.692;9.400;2022-11-15T03:46:12;96369.63;;;1.56;100.00
28927;BME280;16038;47.692;9.400;2022-11-15T03:48:43;96371.56;;;1.73;100.00
28927;BME280;16038;47.692;9.400;2022-11-15T03:51:11;96371.72;;;1.94;100.00
28927;BME280;16038;47.692;9.400;2022-11-15T03:53:36;96363.75;;;2.06;100.00
28927;BME280;16038;47.692;9.400;2022-11-15T03:56:02;96369.47;;;2.14;100.00
28927;BME280;16038;47.692;9.400;2022-11-15T03:58:27;96370.41;;;2.18;100.00
28927;BME280;16038;47.692;9.400;2022-11-15T04:00:53;96363.28;;;2.22;100.00
28927;BME280;16038;47.692;9.400;2022-11-15T04:03:18;96364.38;;;2.21;100.00
28927;BME280;16038;47.692;9.400;2022-11-15T04:05:43;96355.34;;;1.99;100.00
28927;BME280;16038;47.692;9.400;2022-11-15T04:08:09;96360.44;;;1.75;100.00
28927;BME280;16038;47.692;9.400;2022-11-15T04:10:34;96353.94;;;1.67;100.00
28927;BME280;16038;47.692;9.400;2022-11-15T04:13:02;96359.47;;;1.62;100.00
28927;BME280;16038;47.692;9.400;2022-11-15T04:15:28;96359.63;;;1.65;100.00
28927;BME280;16038;47.692;9.400;2022-11-15T04:17:56;96355.06;;;1.66;100.00
28927;BME280;16038;47.692;9.400;2022-11-15T04:20:27;96351.69;;;1.69;100.00
28927;BME280;16038;47.692;9.400;2022-11-15T04:23:20;96342.66;;;1.74;100.00
28927;BME280;16038;47.692;9.400;2022-11-15T04:26:16;96355.03;;;1.83;100.00
28927;BME280;16038;47.692;9.400;2022-11-15T04:28:43;96359.19;;;1.98;100.00
28927;BME280;16038;47.692;9.400;2022-11-15T04:31:27;96355.19;;;1.87;100.00
28927;BME280;16038;47.692;9.400;2022-11-15T04:33:53;96355.34;;;1.82;100.00
28927;BME280;16038;47.692;9.400;2022-11-15T04:36:19;96347.25;;;1.82;100.00
28927;BME280;16038;47.692;9.400;2022-11-15T04:39:04;96357.56;;;1.80;100.00
28927;BME280;16038;47.692;9.400;2022-11-15T04:41:29;96361.72;;;1.86;100.00
28927;BME280;16038;47.692;9.400;2022-11-15T04:43:55;96360.13;;;2.02;100.00
28927;BME280;16038;47.692;9.400;2022-11-15T04:46:21;96362.03;;;2.02;100.00
28927;BME280;16038;47.692;9.400;2022-11-15T04:48:47;96366.31;;;2.03;100.00
28927;BME280;16038;47.692;9.400;2022-11-15T04:51:12;96357.56;;;2.06;100.00
28927;BME280;16038;47.692;9.400;2022-11-15T04:53:38;96356.13;;;2.00;100.00
28927;BME280;16038;47.692;9.400;2022-11-15T04:56:03;96352.34;;;1.92;100.00
28927;BME280;16038;47.692;9.400;2022-11-15T04:58:29;96350.44;;;1.75;100.00
28927;BME280;16038;47.692;9.400;2022-11-15T05:00:54;96356.78;;;1.70;100.00
28927;BME280;16038;47.692;9.400;2022-11-15T05:03:20;96344.56;;;1.56;100.00
28927;BME280;16038;47.692;9.400;2022-11-15T05:06:04;96337.41;;;1.51;100.00
28927;BME280;16038;47.692;9.400;2022-11-15T05:08:30;96329.63;;;1.49;100.00
28927;BME280;16038;47.692;9.400;2022-11-15T05:10:55;96325.50;;;1.61;100.00
28927;BME280;16038;47.692;9.400;2022-11-15T05:13:21;96328.84;;;1.58;100.00
28927;BME280;16038;47.692;9.400;2022-11-15T05:15:47;96334.41;;;1.61;100.00
28927;BME280;16038;47.692;9.400;2022-11-15T05:18:12;96337.09;;;1.70;100.00
28927;BME280;16038;47.692;9.400;2022-11-15T05:20:37;96335.66;;;1.72;100.00
28927;BME280;16038;47.692;9.400;2022-11-15T05:23:03;96329.16;;;1.74;100.00
28927;BME280;16038;47.692;9.400;2022-11-15T05:25:28;96329.94;;;1.83;100.00
28927;BME280;16038;47.692;9.400;2022-11-15T05:27:54;96323.59;;;1.79;100.00
28927;BME280;16038;47.692;9.400;2022-11-15T05:30:19;96322.31;;;1.76;100.00
28927;BME280;16038;47.692;9.400;2022-11-15T05:32:45;96318.50;;;1.77;100.00
28927;BME280;16038;47.692;9.400;2022-11-15T05:35:20;96326.31;;;1.79;100.00
28927;BME280;16038;47.692;9.400;2022-11-15T05:37:48;96323.75;;;1.82;100.00
28927;BME280;16038;47.692;9.400;2022-11-15T05:40:13;96323.09;;;1.85;100.00
28927;BME280;16038;47.692;9.400;2022-11-15T05:42:39;96315.66;;;1.91;100.00
28927;BME280;16038;47.692;9.400;2022-11-15T05:45:06;96316.91;;;1.94;100.00
28927;BME280;16038;47.692;9.400;2022-11-15T05:47:33;96317.38;;;2.04;100.00
28927;BME280;16038;47.692;9.400;2022-11-15T05:50:00;96326.25;;;2.14;100.00
28927;BME280;16038;47.692;9.400;2022-11-15T05:52:28;96320.38;;;2.20;100.00
28927;BME280;16038;47.692;9.400;2022-11-15T05:54:56;96318.91;;;2.23;100.00
28927;BME280;16038;47.692;9.400;2022-11-15T05:57:24;96317.19;;;2.27;100.00
28927;BME280;16038;47.692;9.400;2022-11-15T05:59:49;96319.66;;;2.41;100.00
28927;BME280;16038;47.692;9.400;2022-11-15T06:02:15;96319.19;;;2.39;100.00
28927;BME280;16038;47.692;9.400;2022-11-15T06:04:40;96324.75;;;2.42;100.00
28927;BME280;16038;47.692;9.400;2022-11-15T06:07:06;96309.47;;;2.46;100.00
28927;BME280;16038;47.692;9.400;2022-11-15T06:09:31;96310.44;;;2.51;100.00
28927;BME280;16038;47.692;9.400;2022-11-15T06:11:57;96325.97;;;2.54;100.00
28927;BME280;16038;47.692;9.400;2022-11-15T06:14:22;96323.72;;;2.64;100.00
28927;BME280;16038;47.692;9.400;2022-11-15T06:16:47;96329.06;;;2.82;100.00
28927;BME280;16038;47.692;9.400;2022-11-15T06:19:13;96329.97;;;2.86;100.00
28927;BME280;16038;47.692;9.400;2022-11-15T06:21:38;96320.59;;;2.92;100.00
28927;BME280;16038;47.692;9.400;2022-11-15T06:24:04;96333.13;;;2.97;100.00
28927;BME280;16038;47.692;9.400;2022-11-15T06:26:30;96328.00;;;3.04;100.00
28927;BME280;16038;47.692;9.400;2022-11-15T06:28:55;96336.78;;;3.01;100.00
28927;BME280;16038;47.692;9.400;2022-11-15T06:31:21;96328.25;;;3.11;100.00
28927;BME280;16038;47.692;9.400;2022-11-15T06:33:46;96328.69;;;3.22;100.00
28927;BME280;16038;47.692;9.400;2022-11-15T06:36:12;96322.91;;;3.32;100.00
28927;BME280;16038;47.692;9.400;2022-11-15T06:38:43;96325.34;;;3.46;100.00
28927;BME280;16038;47.692;9.400;2022-11-15T06:41:10;96319.63;;;3.48;100.00
28927;BME280;16038;47.692;9.400;2022-11-15T06:43:36;96317.75;;;3.39;100.00
28927;BME280;16038;47.692;9.400;2022-11-15T06:46:03;96310.56;;;3.22;100.00
28927;BME280;16038;47.692;9.400;2022-11-15T06:48:30;96308.81;;;3.18;100.00
28927;BME280;16038;47.692;9.400;2022-11-15T06:50:57;96305.47;;;3.21;100.00
28927;BME280;16038;47.692;9.400;2022-11-15T06:53:23;96302.88;;;3.24;100.00
28927;BME280;16038;47.692;9.400;2022-11-15T06:55:49;96309.69;;;3.31;100.00
28927;BME280;16038;47.692;9.400;2022-11-15T06:58:15;96307.75;;;3.31;100.00
28927;BME280;16038;47.692;9.400;2022-11-15T07:00:40;96304.28;;;3.31;100.00
28927;BME280;16038;47.692;9.400;2022-11-15T07:03:06;96297.41;;;3.33;100.00
28927;BME280;16038;47.692;9.400;2022-11-15T07:05:32;96300.59;;;3.35;100.00
28927;BME280;16038;47.692;9.400;2022-11-15T07:07:58;96307.38;;;3.41;100.00
28927;BME280;16038;47.692;9.400;2022-11-15T07:10:24;96311.81;;;3.46;100.00
28927;BME280;16038;47.692;9.400;2022-11-15T07:12:51;96311.28;;;3.53;100.00
28927;BME280;16038;47.692;9.400;2022-11-15T07:15:20;96304.41;;;3.55;100.00
28927;BME280;16038;47.692;9.400;2022-11-15T07:17:46;96306.59;;;3.62;100.00
28927;BME280;16038;47.692;9.400;2022-11-15T07:20:13;96307.19;;;3.68;100.00
28927;BME280;16038;47.692;9.400;2022-11-15T07:22:39;96302.56;;;3.89;100.00
28927;BME280;16038;47.692;9.400;2022-11-15T07:25:05;96309.53;;;3.90;100.00
28927;BME280;16038;47.692;9.400;2022-11-15T07:27:32;96309.66;;;4.27;100.00
28927;BME280;16038;47.692;9.400;2022-11-15T07:29:57;96300.34;;;4.16;100.00
28927;BME280;16038;47.692;9.400;2022-11-15T07:32:23;96301.84;;;3.80;100.00
28927;BME280;16038;47.692;9.400;2022-11-15T07:34:48;96305.59;;;3.88;100.00
28927;BME280;16038;47.692;9.400;2022-11-15T07:37:13;96308.56;;;3.95;100.00
28927;BME280;16038;47.692;9.400;2022-11-15T07:39:39;96315.84;;;3.82;100.00
28927;BME280;16038;47.692;9.400;2022-11-15T07:42:04;96317.34;;;3.92;100.00
28927;BME280;16038;47.692;9.400;2022-11-15T07:44:49;96320.22;;;4.08;100.00
28927;BME280;16038;47.692;9.400;2022-11-15T07:47:14;96308.00;;;4.01;100.00
28927;BME280;16038;47.692;9.400;2022-11-15T07:49:39;96308.38;;;4.12;100.00
28927;BME280;16038;47.692;9.400;2022-11-15T07:52:05;96303.19;;;4.19;100.00
28927;BME280;16038;47.692;9.400;2022-11-15T07:54:30;96299.56;;;4.15;100.00
28927;BME280;16038;47.692;9.400;2022-11-15T07:56:56;96298.25;;;4.34;100.00
28927;BME280;16038;47.692;9.400;2022-11-15T07:59:21;96288.06;;;4.18;100.00
28927;BME280;16038;47.692;9.400;2022-11-15T08:01:47;96285.91;;;4.12;100.00
28927;BME280;16038;47.692;9.400;2022-11-15T08:04:12;96284.28;;;4.44;100.00
28927;BME280;16038;47.692;9.400;2022-11-15T08:06:37;96279.56;;;4.08;100.00
28927;BME280;16038;47.692;9.400;2022-11-15T08:09:03;96287.19;;;3.93;100.00
28927;BME280;16038;47.692;9.400;2022-11-15T08:11:28;96289.38;;;4.00;100.00
28927;BME280;16038;47.692;9.400;2022-11-15T08:13:54;96285.16;;;3.90;100.00
28927;BME280;16038;47.692;9.400;2022-11-15T08:16:19;96284.91;;;3.83;100.00
28927;BME280;16038;47.692;9.400;2022-11-15T08:18:45;96280.88;;;3.89;100.00
28927;BME280;16038;47.692;9.400;2022-11-15T08:21:13;96281.66;;;3.90;100.00
28927;BME280;16038;47.692;9.400;2022-11-15T08:23:39;96276.06;;;4.07;100.00
28927;BME280;16038;47.692;9.400;2022-11-15T08:26:05;96267.47;;;4.05;100.00
28927;BME280;16038;47.692;9.400;2022-11-15T08:28:31;96267.66;;;4.33;100.00
28927;BME280;16038;47.692;9.400;2022-11-15T08:30:57;96276.84;;;4.66;100.00
28927;BME280;16038;47.692;9.400;2022-11-15T08:33:22;96272.84;;;4.26;100.00
28927;BME280;16038;47.692;9.400;2022-11-15T08:35:48;96270.63;;;3.95;100.00
28927;BME280;16038;47.692;9.400;2022-11-15T08:38:13;96274.03;;;4.04;100.00
28927;BME280;16038;47.692;9.400;2022-11-15T08:40:39;96267.97;;;4.32;100.00
28927;BME280;16038;47.692;9.400;2022-11-15T08:43:05;96260.00;;;4.48;100.00
28927;BME280;16038;47.692;9.400;2022-11-15T08:45:31;96261.91;;;4.47;100.00
28927;BME280;16038;47.692;9.400;2022-11-15T08:47:57;96258.88;;;4.49;100.00
28927;BME280;16038;47.692;9.400;2022-11-15T08:50:22;96259.91;;;4.69;100.00
28927;BME280;16038;47.692;9.400;2022-11-15T08:52:49;96264.84;;;5.16;100.00
28927;BME280;16038;47.692;9.400;2022-11-15T08:55:14;96264.13;;;5.31;100.00
28927;BME280;16038;47.692;9.400;2022-11-15T08:57:40;96264.34;;;5.67;100.00
28927;BME280;16038;47.692;9.400;2022-11-15T09:00:06;96258.50;;;5.93;100.00
28927;BME280;16038;47.692;9.400;2022-11-15T09:02:31;96252.78;;;6.10;100.00
28927;BME280;16038;47.692;9.400;2022-11-15T09:04:57;96244.50;;;5.50;100.00
28927;BME280;16038;47.692;9.400;2022-11-15T09:07:22;96249.94;;;5.50;100.00
28927;BME280;16038;47.692;9.400;2022-11-15T09:09:48;96248.44;;;5.81;100.00
28927;BME280;16038;47.692;9.400;2022-11-15T09:12:13;96247.97;;;6.20;100.00
28927;BME280;16038;47.692;9.400;2022-11-15T09:14:39;96242.72;;;6.59;100.00
28927;BME280;16038;47.692;9.400;2022-11-15T09:17:07;96251.38;;;6.64;100.00
28927;BME280;16038;47.692;9.400;2022-11-15T09:19:34;96249.25;;;6.89;100.00
28927;BME280;16038;47.692;9.400;2022-11-15T09:21:59;96244.31;;;7.11;100.00
28927;BME280;16038;47.692;9.400;2022-11-15T09:24:25;96247.56;;;7.17;100.00
28927;BME280;16038;47.692;9.400;2022-11-15T09:26:51;96237.25;;;6.91;100.00
28927;BME280;16038;47.692;9.400;2022-11-15T09:29:17;96239.06;;;5.79;100.00
28927;BME280;16038;47.692;9.400;2022-11-15T09:31:42;96243.09;;;5.97;100.00
28927;BME280;16038;47.692;9.400;2022-11-15T09:34:08;96245.06;;;6.44;100.00
28927;BME280;16038;47.692;9.400;2022-11-15T09:36:34;96250.16;;;6.62;100.00
28927;BME280;16038;47.692;9.400;2022-11-15T09:38:59;96245.06;;;6.60;100.00
28927;BME280;16038;47.692;9.400;2022-11-15T09:47:16;96239.97;;;7.26;100.00
28927;BME280;16038;47.692;9.400;2022-11-15T09:49:52;96240.75;;;7.26;100.00
28927;BME280;16038;47.692;9.400;2022-11-15T09:52:19;96241.84;;;7.41;100.00
28927;BME280;16038;47.692;9.400;2022-11-15T09:54:48;96239.72;;;7.51;100.00
28927;BME280;16038;47.692;9.400;2022-11-15T10:00:18;96242.16;;;7.56;100.00
28927;BME280;16038;47.692;9.400;2022-11-15T10:03:10;96231.19;;;7.72;100.00
28927;BME280;16038;47.692;9.400;2022-11-15T10:05:41;96216.75;;;7.91;100.00
28927;BME280;16038;47.692;9.400;2022-11-15T10:10:47;96220.69;;;8.36;100.00
28927;BME280;16038;47.692;9.400;2022-11-15T10:13:22;96219.81;;;8.09;100.00
28927;BME280;16038;47.692;9.400;2022-11-15T10:15:48;96207.88;;;8.40;100.00
28927;BME280;16038;47.692;9.400;2022-11-15T10:23:18;96214.56;;;8.19;100.00
28927;BME280;16038;47.692;9.400;2022-11-15T10:25:44;96213.44;;;8.44;100.00
28927;BME280;16038;47.692;9.400;2022-11-15T10:30:49;96210.03;;;8.08;100.00
28927;BME280;16038;47.692;9.400;2022-11-15T10:35:47;96207.38;;;8.11;100.00
28927;BME280;16038;47.692;9.400;2022-11-15T10:38:13;96194.53;;;8.12;100.00
28927;BME280;16038;47.692;9.400;2022-11-15T10:40:40;96189.91;;;8.39;100.00
28927;BME280;16038;47.692;9.400;2022-11-15T10:43:17;96173.31;;;8.48;100.00
28927;BME280;16038;47.692;9.400;2022-11-15T10:45:43;96179.44;;;8.64;100.00
28927;BME280;16038;47.692;9.400;2022-11-15T10:48:29;96173.31;;;8.71;100.00
28927;BME280;16038;47.692;9.400;2022-11-15T10:50:55;96178.41;;;8.72;100.00
28927;BME280;16038;47.692;9.400;2022-11-15T10:56:02;96166.94;;;8.40;100.00
28927;BME280;16038;47.692;9.400;2022-11-15T10:58:52;96170.19;;;8.46;100.00
28927;BME280;16038;47.692;9.400;2022-11-15T11:01:25;96163.63;;;8.50;100.00
28927;BME280;16038;47.692;9.400;2022-11-15T11:06:30;96164.81;;;8.76;100.00
28927;BME280;16038;47.692;9.400;2022-11-15T11:08:58;96171.50;;;8.82;100.00
28927;BME280;16038;47.692;9.400;2022-11-15T11:11:25;96171.03;;;8.76;100.00
28927;BME280;16038;47.692;9.400;2022-11-15T11:14:12;96167.06;;;8.70;100.00
28927;BME280;16038;47.692;9.400;2022-11-15T11:16:45;96161.34;;;9.06;100.00
28927;BME280;16038;47.692;9.400;2022-11-15T11:19:37;96166.31;;;9.00;100.00
28927;BME280;16038;47.692;9.400;2022-11-15T11:22:26;96152.59;;;8.96;100.00
28927;BME280;16038;47.692;9.400;2022-11-15T11:25:19;96156.97;;;9.01;100.00
28927;BME280;16038;47.692;9.400;2022-11-15T11:30:43;96152.41;;;9.12;100.00
28927;BME280;16038;47.692;9.400;2022-11-15T11:33:17;96152.00;;;9.10;100.00
28927;BME280;16038;47.692;9.400;2022-11-15T11:39:21;96155.28;;;9.23;100.00
28927;BME280;16038;47.692;9.400;2022-11-15T11:41:55;96159.88;;;9.46;100.00
28927;BME280;16038;47.692;9.400;2022-11-15T11:44:46;96160.16;;;9.37;100.00
28927;BME280;16038;47.692;9.400;2022-11-15T11:47:29;96151.59;;;9.38;100.00
28927;BME280;16038;47.692;9.400;2022-11-15T11:52:44;96145.00;;;9.43;100.00
28927;BME280;16038;47.692;9.400;2022-11-15T11:55:24;96147.88;;;9.57;100.00
28927;BME280;16038;47.692;9.400;2022-11-15T11:58:14;96144.94;;;9.73;100.00
28927;BME280;16038;47.692;9.400;2022-11-15T12:00:54;96152.56;;;9.91;100.00
28927;BME280;16038;47.692;9.400;2022-11-15T12:11:52;96143.78;;;10.12;100.00
28927;BME280;16038;47.692;9.400;2022-11-15T12:14:29;96143.22;;;9.95;100.00
28927;BME280;16038;47.692;9.400;2022-11-15T12:16:57;96141.63;;;9.91;100.00
28927;BME280;16038;47.692;9.400;2022-11-15T12:19:24;96141.63;;;9.91;100.00
28927;BME280;16038;47.692;9.400;2022-11-15T12:24:31;96130.16;;;10.19;100.00
28927;BME280;16038;47.692;9.400;2022-11-15T12:27:17;96130.03;;;10.05;100.00
28927;BME280;16038;47.692;9.400;2022-11-15T12:29:48;96132.34;;;10.03;100.00
28927;BME280;16038;47.692;9.400;2022-11-15T12:34:50;96130.19;;;9.82;100.00
28927;BME280;16038;47.692;9.400;2022-11-15T12:42:40;96121.63;;;9.83;100.00
28927;BME280;16038;47.692;9.400;2022-11-15T12:45:39;96119.06;;;9.30;100.00
28927;BME280;16038;47.692;9.400;2022-11-15T12:51:00;96102.59;;;9.23;100.00
28927;BME280;16038;47.692;9.400;2022-11-15T12:53:31;96100.88;;;9.45;100.00
28927;BME280;16038;47.692;9.400;2022-11-15T12:56:30;96105.16;;;9.08;100.00
28927;BME280;16038;47.692;9.400;2022-11-15T12:58:59;96094.72;;;8.87;100.00
28927;BME280;16038;47.692;9.400;2022-11-15T13:07:04;96079.03;;;8.50;100.00
28927;BME280;16038;47.692;9.400;2022-11-15T13:14:49;96070.66;;;8.96;100.00
28927;BME280;16038;47.692;9.400;2022-11-15T13:19:46;96041.31;;;9.20;100.00
28927;BME280;16038;47.692;9.400;2022-11-15T13:22:11;96031.91;;;8.87;100.00
28927;BME280;16038;47.692;9.400;2022-11-15T13:24:56;96028.78;;;8.55;100.00
28927;BME280;16038;47.692;9.400;2022-11-15T13:27:22;96022.19;;;8.56;100.00
28927;BME280;16038;47.692;9.400;2022-11-15T13:29:47;96027.09;;;8.73;100.00
28927;BME280;16038;47.692;9.400;2022-11-15T13:32:15;96022.00;;;8.72;100.00
28927;BME280;16038;47.692;9.400;2022-11-15T13:34:46;96021.00;;;8.57;100.00
28927;BME280;16038;47.692;9.400;2022-11-15T13:37:28;96008.56;;;8.90;100.00
28927;BME280;16038;47.692;9.400;2022-11-15T13:40:34;96009.41;;;8.97;100.00
28927;BME280;16038;47.692;9.400;2022-11-15T13:42:56;96008.00;;;9.11;100.00
28927;BME280;16038;47.692;9.400;2022-11-15T13:45:23;96005.22;;;9.07;100.00
28927;BME280;16038;47.692;9.400;2022-11-15T13:47:54;96008.56;;;9.27;100.00
28927;BME280;16038;47.692;9.400;2022-11-15T13:50:24;96013.38;;;9.41;100.00
28927;BME280;16038;47.692;9.400;2022-11-15T13:52:50;96007.56;;;9.05;100.00
28927;BME280;16038;47.692;9.400;2022-11-15T13:55:21;96009.47;;;9.01;100.00
28927;BME280;16038;47.692;9.400;2022-11-15T13:57:51;96003.78;;;9.17;100.00
28927;BME280;16038;47.692;9.400;2022-11-15T14:02:50;96002.09;;;9.05;100.00
28927;BME280;16038;47.692;9.400;2022-11-15T14:05:18;95998.69;;;8.82;100.00
28927;BME280;16038;47.692;9.400;2022-11-15T14:08:01;95989.41;;;8.56;100.00
28927;BME280;16038;47.692;9.400;2022-11-15T14:10:30;95976.47;;;8.49;100.00
28927;BME280;16038;47.692;9.400;2022-11-15T14:12:56;95980.06;;;8.27;100.00
28927;BME280;16038;47.692;9.400;2022-11-15T14:17:52;95966.25;;;8.16;100.00
28927;BME280;16038;47.692;9.400;2022-11-15T14:22:57;95960.72;;;8.09;100.00
28927;BME280;16038;47.692;9.400;2022-11-15T14:25:25;95953.50;;;7.97;100.00
28927;BME280;16038;47.692;9.400;2022-11-15T14:30:34;95949.31;;;8.03;100.00
28927;BME280;16038;47.692;9.400;2022-11-15T14:32:59;95949.31;;;8.03;100.00
28927;BME280;16038;47.692;9.400;2022-11-15T14:35:25;95938.28;;;7.96;100.00
28927;BME280;16038;47.692;9.400;2022-11-15T14:37:51;95938.69;;;7.94;100.00
28927;BME280;16038;47.692;9.400;2022-11-15T14:40:18;95927.78;;;7.94;100.00
28927;BME280;16038;47.692;9.400;2022-11-15T14:42:45;95929.66;;;7.90;100.00
28927;BME280;16038;47.692;9.400;2022-11-15T14:45:14;95920.28;;;7.88;100.00
28927;BME280;16038;47.692;9.400;2022-11-15T14:47:40;95913.69;;;7.89;100.00
28927;BME280;16038;47.692;9.400;2022-11-15T14:50:06;95920.75;;;7.93;100.00
28927;BME280;16038;47.692;9.400;2022-11-15T14:52:32;95916.88;;;7.94;100.00
28927;BME280;16038;47.692;9.400;2022-11-15T14:55:03;95923.53;;;7.97;100.00
28927;BME280;16038;47.692;9.400;2022-11-15T14:57:35;95905.53;;;7.92;100.00